| time (UTC) | temp F | wind direction | speed MPH | gust MPH | rain 1hr in | rain 24hr in | rain mn in | humidity % | barometer mb |
| 20260906234517 | 77 | 0.0 | 3.0 | 0.00 | 0.00 | 0.00 | 55 | 1010.0 | |
| 20260906233019 | 77 | 0.0 | 2.0 | 0.00 | 0.00 | 0.00 | 53 | 1010.1 | |
| 20260906231518 | 78 | 0.0 | 4.0 | 0.00 | 0.00 | 0.00 | 51 | 1010.1 | |
| 20260906230037 | 78 | 0.0 | 2.0 | 0.00 | 0.00 | 0.00 | 49 | 1010.1 | |
| 20260906224518 | 79 | 0.0 | 4.0 | 0.00 | 0.00 | 0.00 | 49 | 1009.9 | |
| 20260906223017 | 79 | 0.0 | 3.0 | 0.00 | 0.00 | 0.00 | 50 | 1009.8 | |
| 20260906221517 | 80 | 0.0 | 7.0 | 0.00 | 0.00 | 0.00 | 48 | 1009.8 | |
| 20260906220017 | 80 | 0.0 | 7.0 | 0.00 | 0.00 | 0.00 | 48 | 1010.0 | |
| 20260906214539 | 81 | 23 | 1.0 | 8.0 | 0.00 | 0.00 | 0.00 | 47 | 1009.8 |
| 20260906213057 | 82 | 23 | 1.0 | 11.0 | 0.00 | 0.00 | 0.00 | 44 | 1010.1 |
| 20260906211517 | 82 | 45 | 1.0 | 9.0 | 0.00 | 0.00 | 0.00 | 44 | 1010.1 |
| 20260906210017 | 82 | 23 | 1.0 | 6.0 | 0.00 | 0.00 | 0.00 | 45 | 1010.1 |
| 20260906204517 | 83 | 0 | 1.0 | 6.0 | 0.00 | 0.00 | 0.00 | 43 | 1010.1 |
| 20260906203017 | 83 | 0.0 | 5.0 | 0.00 | 0.00 | 0.00 | 44 | 1010.0 | |
| 20260906201557 | 82 | 45 | 1.0 | 11.0 | 0.00 | 0.00 | 0.00 | 43 | 1010.2 |
| 20260906200017 | 82 | 0 | 1.0 | 7.0 | 0.00 | 0.00 | 0.00 | 44 | 1010.1 |
| 20260906194537 | 82 | 45 | 2.0 | 9.0 | 0.00 | 0.00 | 0.00 | 43 | 1010.1 |
| 20260906193017 | 82 | 23 | 1.0 | 8.0 | 0.00 | 0.00 | 0.00 | 49 | 1010.1 |
| 20260906191537 | 83 | 23 | 1.0 | 8.0 | 0.00 | 0.00 | 0.00 | 47 | 1010.2 |
| 20260906190015 | 83 | 68 | 1.0 | 8.0 | 0.00 | 0.00 | 0.00 | 48 | 1010.2 |
| 20260906184537 | 82 | 45 | 2.0 | 10.0 | 0.00 | 0.00 | 0.00 | 47 | 1010.2 |
| 20260906183017 | 82 | 45 | 1.0 | 8.0 | 0.00 | 0.00 | 0.00 | 47 | 1010.4 |
| 20260906181515 | 82 | 45 | 1.0 | 7.0 | 0.00 | 0.00 | 0.00 | 50 | 1010.6 |
| 20260906180056 | 82 | 45 | 1.0 | 6.0 | 0.00 | 0.00 | 0.00 | 50 | 1010.5 |
| 20260906174517 | 81 | 45 | 2.0 | 9.0 | 0.00 | 0.00 | 0.00 | 50 | 1010.6 |
| 20260906173016 | 81 | 45 | 2.0 | 12.0 | 0.00 | 0.00 | 0.00 | 51 | 1010.7 |
| 20260906171516 | 81 | 23 | 1.0 | 8.0 | 0.00 | 0.00 | 0.00 | 50 | 1010.8 |
| 20260906170035 | 80 | 23 | 1.0 | 7.0 | 0.00 | 0.00 | 0.00 | 51 | 1010.8 |
| 20260906164516 | 80 | 68 | 1.0 | 8.0 | 0.00 | 0.00 | 0.00 | 51 | 1010.9 |
| 20260906163016 | 79 | 45 | 1.0 | 8.0 | 0.00 | 0.00 | 0.00 | 51 | 1011.1 |
| 20260906161516 | 79 | 0 | 1.0 | 11.0 | 0.00 | 0.00 | 0.00 | 55 | 1011.3 |
| 20260906160016 | 79 | 45 | 1.0 | 6.0 | 0.00 | 0.00 | 0.00 | 57 | 1011.5 |
| 20260906154516 | 78 | 45 | 1.0 | 5.0 | 0.00 | 0.00 | 0.00 | 55 | 1011.4 |
| 20260906153016 | 77 | 45 | 1.0 | 10.0 | 0.00 | 0.00 | 0.00 | 58 | 1011.2 |
| 20260906151515 | 77 | 68 | 1.0 | 7.0 | 0.00 | 0.00 | 0.00 | 58 | 1011.2 |
| 20260906150016 | 76 | 23 | 1.0 | 7.0 | 0.00 | 0.00 | 0.00 | 59 | 1011.2 |
| 20260906144516 | 76 | 0 | 1.0 | 7.0 | 0.00 | 0.00 | 0.00 | 63 | 1011.2 |
| 20260906143037 | 74 | 45 | 1.0 | 8.0 | 0.00 | 0.00 | 0.00 | 64 | 1010.9 |
| 20260906141515 | 73 | 0.0 | 6.0 | 0.00 | 0.00 | 0.00 | 69 | 1010.9 | |
| 20260906140016 | 71 | 68 | 1.0 | 6.0 | 0.00 | 0.00 | 0.00 | 72 | 1010.7 |
| 20260906134516 | 70 | 23 | 1.0 | 6.0 | 0.00 | 0.00 | 0.00 | 75 | 1010.7 |
| 20260906133017 | 69 | 23 | 1.0 | 8.0 | 0.00 | 0.00 | 0.00 | 80 | 1010.6 |
| 20260906131517 | 68 | 0.0 | 5.0 | 0.00 | 0.00 | 0.00 | 90 | 1010.7 | |
| 20260906130016 | 68 | 0.0 | 6.0 | 0.00 | 0.00 | 0.00 | 96 | 1010.6 | |
| 20260906124516 | 67 | 0.0 | 2.0 | 0.00 | 0.00 | 0.00 | 98 | 1010.6 | |
| 20260906123017 | 67 | 0.0 | 0.0 | 0.00 | 0.00 | 0.00 | 100 | 1010.5 | |
| 20260906121516 | 67 | 0.0 | 2.0 | 0.00 | 0.00 | 0.00 | 100 | 1010.3 | |
| 20260906120019 | 67 | 0.0 | 1.0 | 0.00 | 0.00 | 0.00 | 100 | 1010.1 | |
| 20260906114516 | 67 | 0.0 | 1.0 | 0.00 | 0.00 | 0.00 | 100 | 1009.8 | |
| 20260906113016 | 67 | 0.0 | 1.0 | 0.00 | 0.00 | 0.00 | 100 | 1009.7 | |
| 20260906111517 | 68 | 0.0 | 2.0 | 0.00 | 0.00 | 0.00 | 100 | 1009.6 | |
| 20260906110016 | 68 | 0.0 | 2.0 | 0.00 | 0.00 | 0.00 | 100 | 1009.4 | |
| 20260906104538 | 68 | 0.0 | 0.0 | 0.00 | 0.01 | 0.00 | 100 | 1009.3 | |
| 20260906103016 | 69 | 0.0 | 1.0 | 0.00 | 0.03 | 0.00 | 100 | 1009.1 | |
| 20260906101516 | 69 | 0.0 | 2.0 | 0.00 | 0.06 | 0.00 | 100 | 1009.0 | |
| 20260906100018 | 69 | 0.0 | 2.0 | 0.00 | 0.06 | 0.00 | 100 | 1008.8 | |
| 20260906094516 | 69 | 0.0 | 3.0 | 0.00 | 0.06 | 0.00 | 100 | 1008.7 | |
| 20260906093017 | 70 | 0.0 | 3.0 | 0.00 | 0.06 | 0.00 | 100 | 1008.6 | |
| 20260906091518 | 71 | 0.0 | 5.0 | 0.00 | 0.06 | 0.00 | 100 | 1008.5 | |
| 20260906090018 | 71 | 0.0 | 3.0 | 0.00 | 0.06 | 0.00 | 100 | 1008.3 | |
| 20260906084516 | 72 | 0.0 | 3.0 | 0.00 | 0.06 | 0.00 | 100 | 1008.1 | |
| 20260906083036 | 72 | 0.0 | 3.0 | 0.00 | 0.06 | 0.00 | 100 | 1008.1 | |
| 20260906081516 | 72 | 0.0 | 5.0 | 0.00 | 0.06 | 0.00 | 100 | 1008.2 | |
| 20260906080016 | 72 | 0.0 | 5.0 | 0.00 | 0.06 | 0.00 | 100 | 1008.1 | |
| 20260906074516 | 72 | 0.0 | 3.0 | 0.00 | 0.06 | 0.00 | 100 | 1008.0 | |
| 20260906073016 | 73 | 0.0 | 1.0 | 0.00 | 0.06 | 0.00 | 100 | 1008.0 | |
| 20260906071536 | 73 | 0.0 | 2.0 | 0.00 | 0.06 | 0.00 | 100 | 1008.2 | |
| 20260906070016 | 73 | 0.0 | 2.0 | 0.00 | 0.06 | 0.00 | 100 | 1008.3 | |
| 20260906064516 | 73 | 0.0 | 1.0 | 0.00 | 0.06 | 0.00 | 100 | 1008.1 | |
| 20260906063016 | 73 | 0.0 | 0.0 | 0.00 | 0.06 | 0.00 | 100 | 1008.2 | |
| 20260906061516 | 73 | 0.0 | 0.0 | 0.00 | 0.06 | 0.00 | 100 | 1008.1 | |
| 20260906060016 | 72 | 0.0 | 0.0 | 0.00 | 0.06 | 0.00 | 100 | 1008.3 | |
| 20260906054516 | 73 | 0.0 | 0.0 | 0.00 | 0.06 | 0.00 | 100 | 1008.3 | |
| 20260906053016 | 73 | 0.0 | 0.0 | 0.00 | 0.06 | 0.00 | 100 | 1008.3 | |
| 20260906051516 | 72 | 0.0 | 0.0 | 0.00 | 0.06 | 0.00 | 100 | 1008.2 | |
| 20260906050016 | 72 | 0.0 | 0.0 | 0.00 | 0.06 | 0.00 | 100 | 1008.1 | |
| 20260906044537 | 72 | 0.0 | 0.0 | 0.00 | 0.06 | 0.00 | 100 | 1008.0 | |
| 20260906043016 | 72 | 0.0 | 0.0 | 0.00 | 0.06 | 0.00 | 100 | 1007.5 | |
| 20260906041516 | 73 | 0.0 | 0.0 | 0.00 | 0.06 | 0.00 | 100 | 1007.4 | |
| 20260906040016 | 73 | 0.0 | 0.0 | 0.00 | 0.06 | 0.00 | 100 | 1007.5 | |
| 20260906034517 | 73 | 0.0 | 0.0 | 0.00 | 0.06 | 0.06 | 100 | 1007.5 | |
| 20260906033017 | 73 | 0.0 | 0.0 | 0.00 | 0.06 | 0.06 | 99 | 1007.4 | |
| 20260906031517 | 73 | 0.0 | 0.0 | 0.00 | 0.06 | 0.06 | 99 | 1007.3 | |
| 20260906030017 | 74 | 0.0 | 0.0 | 0.00 | 0.06 | 0.06 | 99 | 1007.4 | |
| 20260906024517 | 74 | 0.0 | 0.0 | 0.00 | 0.06 | 0.06 | 99 | 1007.5 | |
| 20260906023037 | 74 | 0.0 | 0.0 | 0.00 | 0.06 | 0.06 | 98 | 1007.3 | |
| 20260906021518 | 74 | 0.0 | 0.0 | 0.00 | 0.06 | 0.06 | 98 | 1007.2 | |
| 20260906020016 | 75 | 0.0 | 0.0 | 0.00 | 0.06 | 0.06 | 97 | 1007.6 | |
| 20260906014538 | 75 | 0.0 | 0.0 | 0.00 | 0.06 | 0.06 | 96 | 1007.4 | |
| 20260906013020 | 75 | 0.0 | 0.0 | 0.00 | 0.06 | 0.06 | 96 | 1007.4 | |
| 20260906011517 | 76 | 0.0 | 0.0 | 0.00 | 0.06 | 0.06 | 94 | 1006.9 | |
| 20260906010019 | 76 | 0.0 | 0.0 | 0.00 | 0.06 | 0.06 | 92 | 1006.9 | |
| 20260906004517 | 77 | 0.0 | 2.0 | 0.00 | 0.06 | 0.06 | 91 | 1006.9 | |
| 20260906003017 | 79 | 0.0 | 1.0 | 0.00 | 0.06 | 0.06 | 87 | 1007.2 | |
| 20260906001520 | 80 | 0.0 | 1.0 | 0.00 | 0.06 | 0.06 | 80 | 1006.6 | |
| 20260906000017 | 81 | 0.0 | 2.0 | 0.00 | 0.06 | 0.06 | 75 | 1006.1 |